Time;durP1;ratioP1;P1;durP2;ratioP2;P2;SDS_P1;SDS_P2;PMS_P1;PMS_P2;Temp;Humidity;BMP_temperature;BMP_pressure;BME280_temperature;BME280_humidity;BME280_pressure;Samples;Min_cycle;Max_cycle;Signal;HPM_P1;HPM_P2
2021/10/26 00:01:16;;;;;;;13.48;7.78;;;;;;;;;;4940998;28;20046;-66
2021/10/26 00:03:42;;;;;;;13.60;6.78;;;;;;;;;;4945036;28;20019;-66
2021/10/26 00:06:07;;;;;;;11.68;6.72;;;;;;;;;;4950396;28;20524;-66
2021/10/26 00:08:41;;;;;;;12.93;7.88;;;;;;;;;;4949701;28;20388;-66
2021/10/26 00:11:06;;;;;;;15.35;8.77;;;;;;;;;;4942128;28;20040;-66
2021/10/26 00:13:31;;;;;;;13.30;8.45;;;;;;;;;;4942255;28;20024;-66
2021/10/26 00:15:56;;;;;;;16.13;8.15;;;;;;;;;;4948148;28;20401;-66
2021/10/26 00:18:22;;;;;;;16.33;8.05;;;;;;;;;;4948939;28;20449;-66
2021/10/26 00:20:47;;;;;;;16.73;6.95;;;;;;;;;;4936784;28;20035;-66
2021/10/26 00:23:12;;;;;;;13.48;8.75;;;;;;;;;;4940231;28;20552;-66
2021/10/26 00:25:37;;;;;;;12.75;8.50;;;;;;;;;;4945228;28;20359;-66
2021/10/26 00:28:03;;;;;;;15.07;8.02;;;;;;;;;;4962486;28;20299;-66
2021/10/26 00:30:28;;;;;;;13.80;7.93;;;;;;;;;;4949911;28;20047;-66
2021/10/26 00:32:54;;;;;;;14.43;8.43;;;;;;;;;;4948508;28;20130;-66
2021/10/26 00:35:19;;;;;;;17.13;8.60;;;;;;;;;;4948874;28;20042;-66
2021/10/26 00:37:45;;;;;;;13.90;8.23;;;;;;;;;;4938680;28;20036;-66
2021/10/26 00:40:10;;;;;;;13.70;8.45;;;;;;;;;;4943526;28;20028;-66
2021/10/26 00:42:35;;;;;;;17.25;8.52;;;;;;;;;;4955787;28;20027;-66
2021/10/26 00:45:01;;;;;;;13.82;8.25;;;;;;;;;;4948934;28;20035;-66
2021/10/26 00:47:26;;;;;;;12.90;7.97;;;;;;;;;;4949065;28;20067;-66
2021/10/26 00:49:52;;;;;;;13.93;8.18;;;;;;;;;;4939617;28;20102;-66
2021/10/26 00:52:17;;;;;;;16.60;8.43;;;;;;;;;;4948159;28;20504;-66
2021/10/26 00:54:42;;;;;;;16.02;8.48;;;;;;;;;;4947864;28;20039;-66
2021/10/26 00:57:08;;;;;;;15.68;7.95;;;;;;;;;;4947550;28;20086;-66
2021/10/26 00:59:33;;;;;;;13.73;8.23;;;;;;;;;;4946432;28;20438;-66
2021/10/26 01:01:58;;;;;;;12.15;8.10;;;;;;;;;;4949331;28;20078;-66
2021/10/26 01:04:23;;;;;;;15.77;8.68;;;;;;;;;;4942499;29;20123;-66
2021/10/26 01:06:49;;;;;;;16.52;8.52;;;;;;;;;;4945219;28;20057;-66
2021/10/26 01:09:14;;;;;;;14.88;7.43;;;;;;;;;;4961146;28;20086;-66
2021/10/26 01:11:39;;;;;;;14.02;8.50;;;;;;;;;;4947268;28;20461;-66
2021/10/26 01:14:05;;;;;;;14.02;7.72;;;;;;;;;;4943032;28;20048;-66
2021/10/26 01:16:30;;;;;;;13.05;7.95;;;;;;;;;;4948193;28;20457;-66
2021/10/26 01:18:56;;;;;;;14.93;8.45;;;;;;;;;;4946204;28;20559;-66
2021/10/26 01:21:21;;;;;;;16.40;8.95;;;;;;;;;;4943588;28;20063;-66
2021/10/26 01:23:46;;;;;;;16.73;8.15;;;;;;;;;;4943104;28;20062;-66
2021/10/26 01:26:11;;;;;;;13.75;7.85;;;;;;;;;;4948177;28;20490;-66
2021/10/26 01:28:37;;;;;;;13.50;8.38;;;;;;;;;;4949212;28;20027;-66
2021/10/26 01:31:02;;;;;;;13.85;7.88;;;;;;;;;;4944630;28;20066;-66
2021/10/26 01:33:27;;;;;;;14.50;8.52;;;;;;;;;;4942503;29;20056;-66
2021/10/26 01:35:53;;;;;;;15.68;8.18;;;;;;;;;;4940622;28;20043;-66
2021/10/26 01:38:18;;;;;;;15.60;7.28;;;;;;;;;;4942767;29;20027;-66
2021/10/26 01:40:43;;;;;;;16.67;8.25;;;;;;;;;;4948312;28;20063;-67
2021/10/26 01:43:08;;;;;;;14.55;8.65;;;;;;;;;;4947833;28;20054;-66
2021/10/26 01:45:33;;;;;;;17.25;8.88;;;;;;;;;;4942169;28;20044;-66
2021/10/26 01:47:59;;;;;;;13.80;7.82;;;;;;;;;;4948040;28;20511;-66
2021/10/26 01:50:24;;;;;;;16.48;8.60;;;;;;;;;;4939533;28;20043;-66
2021/10/26 01:52:50;;;;;;;19.02;8.50;;;;;;;;;;4953027;28;20134;-66
2021/10/26 01:55:18;;;;;;;17.42;7.45;;;;;;;;;;4947983;28;20521;-66
2021/10/26 01:57:43;;;;;;;14.23;7.88;;;;;;;;;;4948638;28;20672;-67
2021/10/26 02:00:10;;;;;;;14.30;8.30;;;;;;;;;;4944472;28;20107;-67
2021/10/26 02:02:35;;;;;;;16.90;8.48;;;;;;;;;;4944567;28;20123;-67
2021/10/26 02:05:00;;;;;;;14.32;7.63;;;;;;;;;;4941005;28;20546;-67
2021/10/26 02:07:25;;;;;;;18.58;8.23;;;;;;;;;;4947232;28;20558;-67
2021/10/26 02:09:51;;;;;;;14.93;7.82;;;;;;;;;;4947110;29;20031;-66
2021/10/26 02:12:16;;;;;;;15.80;7.60;;;;;;;;;;4938698;28;20036;-67
2021/10/26 02:14:41;;;;;;;14.80;8.18;;;;;;;;;;4942063;29;20118;-65
2021/10/26 02:17:06;;;;;;;13.30;7.95;;;;;;;;;;4937053;28;20135;-65
2021/10/26 02:19:32;;;;;;;14.00;8.02;;;;;;;;;;4934679;28;20355;-65
2021/10/26 02:21:57;;;;;;;14.48;7.47;;;;;;;;;;4944848;28;20039;-65
2021/10/26 02:24:22;;;;;;;12.50;7.15;;;;;;;;;;4941739;28;20395;-65
2021/10/26 02:26:48;;;;;;;16.58;7.88;;;;;;;;;;4940863;28;20512;-65
2021/10/26 02:29:13;;;;;;;11.75;6.90;;;;;;;;;;4950280;28;20019;-65
2021/10/26 02:31:38;;;;;;;14.68;7.82;;;;;;;;;;4943932;28;20061;-65
2021/10/26 02:34:04;;;;;;;24.80;6.80;;;;;;;;;;4945905;28;20134;-65
2021/10/26 02:36:29;;;;;;;11.55;6.78;;;;;;;;;;4943782;28;20441;-65
2021/10/26 02:38:54;;;;;;;15.20;7.70;;;;;;;;;;4945553;28;20537;-65
2021/10/26 02:41:19;;;;;;;11.52;6.82;;;;;;;;;;4959527;28;20043;-66
2021/10/26 02:43:44;;;;;;;11.00;6.65;;;;;;;;;;4943766;28;20023;-65
2021/10/26 02:46:10;;;;;;;13.15;6.78;;;;;;;;;;4942858;28;20126;-65
2021/10/26 02:48:35;;;;;;;14.43;7.40;;;;;;;;;;4942029;28;20019;-65
2021/10/26 02:51:00;;;;;;;14.02;7.22;;;;;;;;;;4943256;28;20818;-65
2021/10/26 02:53:25;;;;;;;12.32;7.15;;;;;;;;;;4947846;28;20070;-65
2021/10/26 02:55:51;;;;;;;14.32;7.57;;;;;;;;;;4944140;28;20051;-67
2021/10/26 02:58:16;;;;;;;15.55;7.30;;;;;;;;;;4940367;29;20031;-67
2021/10/26 03:00:43;;;;;;;16.45;8.00;;;;;;;;;;4947276;28;20040;-67
2021/10/26 03:03:08;;;;;;;11.40;7.40;;;;;;;;;;4946990;28;20019;-66
2021/10/26 03:05:33;;;;;;;15.52;7.32;;;;;;;;;;4946699;28;20065;-66
2021/10/26 03:07:58;;;;;;;19.35;7.80;;;;;;;;;;4946994;28;20123;-67
2021/10/26 03:10:24;;;;;;;14.95;7.55;;;;;;;;;;4931561;28;20595;-67
2021/10/26 03:12:49;;;;;;;15.32;7.50;;;;;;;;;;4943258;28;20426;-66
2021/10/26 03:15:14;;;;;;;15.82;7.60;;;;;;;;;;4946906;28;20410;-67
2021/10/26 03:17:39;;;;;;;16.17;7.60;;;;;;;;;;4947312;28;20462;-66
2021/10/26 03:20:05;;;;;;;13.65;7.10;;;;;;;;;;4950067;28;20054;-66
2021/10/26 03:22:30;;;;;;;12.00;6.50;;;;;;;;;;4938853;28;20178;-66
2021/10/26 03:24:56;;;;;;;16.05;7.78;;;;;;;;;;4949561;29;20084;-66
2021/10/26 03:27:21;;;;;;;21.02;7.60;;;;;;;;;;4950696;28;20043;-66
2021/10/26 03:29:46;;;;;;;16.85;7.32;;;;;;;;;;4945921;28;20050;-67
2021/10/26 03:32:11;;;;;;;15.95;7.18;;;;;;;;;;4950863;28;20410;-66
2021/10/26 03:34:37;;;;;;;21.75;8.60;;;;;;;;;;4941397;28;20508;-66
2021/10/26 03:37:04;;;;;;;16.02;7.88;;;;;;;;;;4945105;28;20047;-66
2021/10/26 03:39:29;;;;;;;16.73;7.85;;;;;;;;;;4937676;28;20038;-66
2021/10/26 03:41:54;;;;;;;14.00;7.53;;;;;;;;;;4946658;28;20043;-67
2021/10/26 03:44:19;;;;;;;12.27;7.60;;;;;;;;;;4952949;28;20035;-66
2021/10/26 03:46:45;;;;;;;19.50;6.82;;;;;;;;;;4962701;28;20048;-65
2021/10/26 03:49:10;;;;;;;18.48;7.82;;;;;;;;;;4949905;28;20074;-66
2021/10/26 03:51:35;;;;;;;11.98;7.00;;;;;;;;;;4944746;28;20512;-66
2021/10/26 03:54:00;;;;;;;11.77;7.03;;;;;;;;;;4945762;28;20509;-66
2021/10/26 03:56:26;;;;;;;13.63;7.63;;;;;;;;;;4950339;28;20478;-66
2021/10/26 03:58:51;;;;;;;15.25;7.30;;;;;;;;;;4945543;29;20093;-66
2021/10/26 04:01:16;;;;;;;16.00;7.15;;;;;;;;;;4950027;28;20098;-66
2021/10/26 04:03:42;;;;;;;20.88;7.80;;;;;;;;;;4947509;28;20030;-66
2021/10/26 04:06:12;;;;;;;15.82;7.38;;;;;;;;;;4952328;28;20751;-67
2021/10/26 04:11:25;;;;;;;11.70;7.38;;;;;;;;;;4941682;28;20040;-66
2021/10/26 04:13:50;;;;;;;14.23;7.28;;;;;;;;;;4946352;29;20051;-67
2021/10/26 04:16:16;;;;;;;11.10;6.10;;;;;;;;;;4942944;28;20050;-66
2021/10/26 04:18:41;;;;;;;14.57;6.70;;;;;;;;;;4956143;28;20755;-66
2021/10/26 04:21:06;;;;;;;11.75;6.38;;;;;;;;;;4945574;28;20043;-66
2021/10/26 04:23:34;;;;;;;12.35;6.40;;;;;;;;;;4949811;28;20022;-66
2021/10/26 04:25:59;;;;;;;13.75;7.03;;;;;;;;;;4948308;28;20047;-66
2021/10/26 04:28:25;;;;;;;13.13;7.32;;;;;;;;;;4936042;28;20044;-66
2021/10/26 04:30:50;;;;;;;20.55;7.18;;;;;;;;;;4936631;28;20097;-66
2021/10/26 04:33:15;;;;;;;15.80;7.22;;;;;;;;;;4944732;28;20034;-66
2021/10/26 04:35:41;;;;;;;17.80;6.72;;;;;;;;;;4943348;28;20035;-67
2021/10/26 04:38:06;;;;;;;20.10;6.85;;;;;;;;;;4944146;28;20359;-66
2021/10/26 04:40:32;;;;;;;17.38;7.18;;;;;;;;;;4959059;28;20039;-67
2021/10/26 04:42:57;;;;;;;15.23;6.55;;;;;;;;;;4960220;28;20019;-66
2021/10/26 04:45:22;;;;;;;10.65;4.78;;;;;;;;;;4943302;28;20541;-66
2021/10/26 04:47:48;;;;;;;17.30;6.82;;;;;;;;;;4938166;29;20042;-66
2021/10/26 04:50:13;;;;;;;12.93;6.85;;;;;;;;;;4942399;28;20110;-66
2021/10/26 04:52:39;;;;;;;14.52;6.80;;;;;;;;;;4948809;28;20047;-66
2021/10/26 04:55:05;;;;;;;16.98;7.05;;;;;;;;;;4945966;28;20514;-66
2021/10/26 04:57:30;;;;;;;13.27;6.05;;;;;;;;;;4949305;28;20042;-66
2021/10/26 04:59:56;;;;;;;12.85;5.70;;;;;;;;;;4954593;28;20023;-66
2021/10/26 05:02:21;;;;;;;14.38;6.57;;;;;;;;;;4945947;28;20074;-66
2021/10/26 05:04:46;;;;;;;12.48;6.22;;;;;;;;;;4948610;28;20027;-66
2021/10/26 05:07:12;;;;;;;18.55;9.43;;;;;;;;;;4931019;29;20035;-66
2021/10/26 05:09:37;;;;;;;14.40;6.97;;;;;;;;;;4948247;28;20133;-66
2021/10/26 05:12:03;;;;;;;13.13;6.65;;;;;;;;;;4951090;28;20118;-66
2021/10/26 05:14:28;;;;;;;12.85;6.70;;;;;;;;;;4945146;28;20043;-66
2021/10/26 05:16:53;;;;;;;17.25;7.20;;;;;;;;;;4943651;28;20126;-66
2021/10/26 05:19:20;;;;;;;11.63;6.80;;;;;;;;;;4938896;28;20114;-66
2021/10/26 05:21:47;;;;;;;10.20;6.47;;;;;;;;;;4948305;28;20036;-66
2021/10/26 05:24:12;;;;;;;16.83;6.93;;;;;;;;;;4944831;28;20172;-66
2021/10/26 05:26:38;;;;;;;13.15;6.75;;;;;;;;;;4945516;28;20047;-66
2021/10/26 05:29:03;;;;;;;11.02;6.20;;;;;;;;;;4943931;28;20077;-66
2021/10/26 05:31:28;;;;;;;18.40;6.63;;;;;;;;;;4952525;28;20058;-66
2021/10/26 05:33:54;;;;;;;11.65;6.65;;;;;;;;;;4947613;28;20027;-67
2021/10/26 05:36:19;;;;;;;13.50;6.57;;;;;;;;;;4946341;28;20450;-65
2021/10/26 05:38:44;;;;;;;12.00;6.93;;;;;;;;;;4931794;28;20036;-67
2021/10/26 05:41:10;;;;;;;15.75;9.18;;;;;;;;;;4946422;28;20043;-65
2021/10/26 05:43:36;;;;;;;12.75;7.07;;;;;;;;;;4942302;28;20027;-65
2021/10/26 05:46:01;;;;;;;14.50;7.18;;;;;;;;;;4945583;28;20082;-65
2021/10/26 05:48:27;;;;;;;10.55;6.75;;;;;;;;;;4934328;28;20027;-67
2021/10/26 05:50:53;;;;;;;11.73;6.85;;;;;;;;;;4940169;28;20039;-67
2021/10/26 05:53:18;;;;;;;15.13;7.60;;;;;;;;;;4939819;29;20011;-66
2021/10/26 05:55:44;;;;;;;15.85;7.25;;;;;;;;;;4947401;28;20046;-67
2021/10/26 05:58:11;;;;;;;17.92;7.78;;;;;;;;;;4947680;28;20035;-65
2021/10/26 06:00:37;;;;;;;17.40;7.65;;;;;;;;;;4946934;28;20030;-66
2021/10/26 06:03:02;;;;;;;18.50;7.93;;;;;;;;;;4941323;28;20480;-65
2021/10/26 06:05:27;;;;;;;15.52;9.23;;;;;;;;;;4944008;28;20348;-65
2021/10/26 06:07:52;;;;;;;17.15;8.63;;;;;;;;;;4957900;28;20032;-65
2021/10/26 06:10:18;;;;;;;18.23;8.65;;;;;;;;;;4949871;28;20026;-65
2021/10/26 06:12:50;;;;;;;16.95;8.70;;;;;;;;;;4948430;28;20039;-64
2021/10/26 06:15:15;;;;;;;18.20;8.23;;;;;;;;;;4956730;28;20134;-65
2021/10/26 06:17:41;;;;;;;30.63;10.95;;;;;;;;;;4948283;28;20015;-65
2021/10/26 06:20:06;;;;;;;16.73;7.88;;;;;;;;;;4945958;28;20042;-64
2021/10/26 06:22:31;;;;;;;18.00;8.90;;;;;;;;;;4941376;28;20027;-64
2021/10/26 06:24:56;;;;;;;12.43;6.78;;;;;;;;;;4937849;28;20038;-67
2021/10/26 06:27:22;;;;;;;15.68;9.02;;;;;;;;;;4936885;28;20509;-64
2021/10/26 06:29:47;;;;;;;20.48;9.80;;;;;;;;;;4940913;28;20031;-68
2021/10/26 06:32:12;;;;;;;17.55;8.52;;;;;;;;;;4945669;28;20046;-67
2021/10/26 06:34:37;;;;;;;16.80;8.45;;;;;;;;;;4947660;28;20023;-67
2021/10/26 06:37:03;;;;;;;18.02;9.65;;;;;;;;;;4938646;28;20475;-65
2021/10/26 06:39:28;;;;;;;17.00;8.75;;;;;;;;;;4948254;28;20011;-64
2021/10/26 06:41:53;;;;;;;18.77;9.27;;;;;;;;;;4953444;28;20047;-65
2021/10/26 06:44:19;;;;;;;15.63;8.70;;;;;;;;;;4942041;28;20517;-65
2021/10/26 06:46:44;;;;;;;19.58;10.52;;;;;;;;;;4947625;28;20524;-65
2021/10/26 06:49:09;;;;;;;17.67;9.45;;;;;;;;;;4947173;28;20684;-64
2021/10/26 06:51:34;;;;;;;17.90;8.90;;;;;;;;;;4940663;28;20425;-68
2021/10/26 06:54:01;;;;;;;14.40;8.15;;;;;;;;;;4946095;28;20027;-68
2021/10/26 06:56:28;;;;;;;13.85;7.63;;;;;;;;;;4944043;28;20094;-65
2021/10/26 06:58:54;;;;;;;13.43;8.45;;;;;;;;;;4947429;29;20866;-65
2021/10/26 07:01:19;;;;;;;21.05;9.38;;;;;;;;;;4943264;28;20044;-67
2021/10/26 07:03:44;;;;;;;23.30;8.70;;;;;;;;;;4944380;28;20043;-67
2021/10/26 07:06:09;;;;;;;18.33;9.05;;;;;;;;;;4940669;28;20043;-67
2021/10/26 07:08:35;;;;;;;14.45;8.13;;;;;;;;;;4943684;28;20055;-66
2021/10/26 07:11:00;;;;;;;15.73;7.45;;;;;;;;;;4949074;28;20071;-66
2021/10/26 07:13:26;;;;;;;14.15;8.50;;;;;;;;;;4935323;29;20032;-66
2021/10/26 07:15:51;;;;;;;21.25;9.90;;;;;;;;;;4945539;28;20588;-67
2021/10/26 07:18:16;;;;;;;17.48;9.30;;;;;;;;;;4944128;28;20036;-66
2021/10/26 07:20:42;;;;;;;11.10;6.72;;;;;;;;;;4942722;28;20116;-66
2021/10/26 07:23:07;;;;;;;12.38;7.38;;;;;;;;;;4947743;28;20478;-65
2021/10/26 07:25:33;;;;;;;15.07;7.40;;;;;;;;;;4942355;28;20036;-66
2021/10/26 07:27:58;;;;;;;13.80;7.65;;;;;;;;;;4945227;28;20039;-65
2021/10/26 07:30:25;;;;;;;11.00;7.00;;;;;;;;;;4945589;28;20036;-65
2021/10/26 07:32:50;;;;;;;19.38;7.47;;;;;;;;;;4942845;29;20031;-65
2021/10/26 07:35:16;;;;;;;17.75;6.60;;;;;;;;;;4940897;28;20031;-65
2021/10/26 07:37:44;;;;;;;13.52;6.55;;;;;;;;;;4947119;28;20027;-65
2021/10/26 07:40:10;;;;;;;16.17;6.78;;;;;;;;;;4941605;28;20039;-65
2021/10/26 07:42:35;;;;;;;14.57;6.85;;;;;;;;;;4940595;28;20019;-65
2021/10/26 07:45:00;;;;;;;12.18;6.90;;;;;;;;;;4946185;29;20113;-65
2021/10/26 07:47:25;;;;;;;15.10;6.97;;;;;;;;;;4946480;28;20047;-65
2021/10/26 07:49:51;;;;;;;12.73;6.53;;;;;;;;;;4941789;28;20075;-65
2021/10/26 07:52:16;;;;;;;11.25;6.32;;;;;;;;;;4941005;28;20486;-66
2021/10/26 07:54:44;;;;;;;13.07;6.28;;;;;;;;;;4946884;28;20085;-65
2021/10/26 07:57:10;;;;;;;12.00;5.72;;;;;;;;;;4937092;28;20036;-65
2021/10/26 07:59:35;;;;;;;11.65;6.03;;;;;;;;;;4942723;29;20374;-65
2021/10/26 08:02:00;;;;;;;10.68;5.72;;;;;;;;;;4943912;28;20054;-65
2021/10/26 08:04:26;;;;;;;8.80;5.40;;;;;;;;;;4941990;28;20027;-65
2021/10/26 08:06:51;;;;;;;10.43;6.13;;;;;;;;;;4948424;28;20066;-65
2021/10/26 08:09:16;;;;;;;8.52;5.88;;;;;;;;;;4950287;28;20035;-65
2021/10/26 08:11:42;;;;;;;11.13;5.85;;;;;;;;;;4948320;28;20062;-65
2021/10/26 08:14:07;;;;;;;9.57;6.07;;;;;;;;;;4950357;28;20050;-66
2021/10/26 08:16:32;;;;;;;11.95;5.57;;;;;;;;;;4949685;28;20460;-66
2021/10/26 08:18:58;;;;;;;10.85;5.40;;;;;;;;;;4949949;28;20149;-66
2021/10/26 08:21:23;;;;;;;9.98;6.07;;;;;;;;;;4947307;28;20054;-66
2021/10/26 08:23:50;;;;;;;10.48;5.60;;;;;;;;;;4948783;28;20027;-65
2021/10/26 08:26:20;;;;;;;11.98;6.07;;;;;;;;;;4937044;28;20055;-66
2021/10/26 08:28:48;;;;;;;8.73;5.32;;;;;;;;;;4949594;28;20061;-65
2021/10/26 08:31:20;;;;;;;9.88;4.72;;;;;;;;;;4945718;28;20031;-64
2021/10/26 08:34:09;;;;;;;8.50;5.10;;;;;;;;;;4935447;29;20036;-65
2021/10/26 08:36:34;;;;;;;11.95;5.80;;;;;;;;;;4942174;28;20043;-66
2021/10/26 08:39:00;;;;;;;12.43;5.70;;;;;;;;;;4948258;29;20027;-64
2021/10/26 08:41:26;;;;;;;9.00;4.93;;;;;;;;;;4948536;28;20031;-64
2021/10/26 08:43:51;;;;;;;8.98;5.10;;;;;;;;;;4949874;28;20058;-64
2021/10/26 08:46:16;;;;;;;12.02;5.45;;;;;;;;;;4948714;28;20075;-64
2021/10/26 08:48:42;;;;;;;8.15;5.25;;;;;;;;;;4943407;29;20604;-65
2021/10/26 08:51:07;;;;;;;9.77;5.30;;;;;;;;;;4942880;28;20031;-64
2021/10/26 08:53:32;;;;;;;10.88;5.47;;;;;;;;;;4947446;28;20525;-64
2021/10/26 08:55:59;;;;;;;7.15;4.88;;;;;;;;;;4948545;28;20070;-65
2021/10/26 08:58:25;;;;;;;8.27;4.78;;;;;;;;;;4949146;28;20015;-66
2021/10/26 09:00:50;;;;;;;11.75;5.00;;;;;;;;;;4943691;28;20027;-65
2021/10/26 09:03:19;;;;;;;8.48;5.55;;;;;;;;;;4948305;28;20038;-65
2021/10/26 09:05:46;;;;;;;9.73;5.35;;;;;;;;;;4935624;29;20071;-66
2021/10/26 09:08:11;;;;;;;11.68;5.00;;;;;;;;;;4946613;28;20509;-64
2021/10/26 09:10:37;;;;;;;8.07;3.90;;;;;;;;;;4941192;28;20039;-66
2021/10/26 09:18:32;;;;;;;6.80;3.60;;;;;;;;;;4948900;29;20030;-66
2021/10/26 09:20:57;;;;;;;7.43;3.53;;;;;;;;;;4945048;28;20094;-66
2021/10/26 09:23:27;;;;;;;6.20;3.67;;;;;;;;;;4949322;28;20015;-65
2021/10/26 09:25:59;;;;;;;6.07;3.80;;;;;;;;;;4948292;28;20054;-65
2021/10/26 09:28:24;;;;;;;7.18;3.75;;;;;;;;;;4949138;28;20035;-65
2021/10/26 09:31:02;;;;;;;7.35;3.63;;;;;;;;;;4948714;28;20039;-65
2021/10/26 09:33:29;;;;;;;6.07;3.40;;;;;;;;;;4947369;29;20497;-65
2021/10/26 09:35:58;;;;;;;6.20;3.38;;;;;;;;;;4938689;28;20035;-65
2021/10/26 09:38:26;;;;;;;6.43;3.30;;;;;;;;;;4941209;28;20162;-65
2021/10/26 09:40:52;;;;;;;6.05;3.42;;;;;;;;;;4939367;28;20091;-65
2021/10/26 09:43:17;;;;;;;9.57;4.30;;;;;;;;;;4948228;28;20063;-65
2021/10/26 09:45:42;;;;;;;5.63;3.20;;;;;;;;;;4943429;28;20039;-65
2021/10/26 09:48:09;;;;;;;6.05;3.20;;;;;;;;;;4940304;29;20035;-65
2021/10/26 09:50:34;;;;;;;5.55;3.83;;;;;;;;;;4946819;28;20154;-65
2021/10/26 09:53:06;;;;;;;9.05;4.20;;;;;;;;;;4944877;28;20757;-65
2021/10/26 09:55:41;;;;;;;11.15;9.77;;;;;;;;;;4946235;28;20023;-65
2021/10/26 09:58:13;;;;;;;7.30;4.45;;;;;;;;;;4922321;29;20027;-64
2021/10/26 10:00:39;;;;;;;6.50;3.50;;;;;;;;;;4941710;28;20530;-64
2021/10/26 10:03:09;;;;;;;7.85;3.70;;;;;;;;;;4945497;28;20079;-64
2021/10/26 10:05:36;;;;;;;5.95;3.70;;;;;;;;;;4940358;28;20046;-66
2021/10/26 10:08:17;;;;;;;8.05;4.50;;;;;;;;;;4947202;28;20102;-66
2021/10/26 10:10:42;;;;;;;7.47;5.25;;;;;;;;;;4943475;28;20035;-66
2021/10/26 10:13:08;;;;;;;9.20;4.95;;;;;;;;;;4946353;28;20027;-64
2021/10/26 10:15:33;;;;;;;6.22;3.40;;;;;;;;;;4945432;28;20047;-66
2021/10/26 10:17:58;;;;;;;7.40;3.70;;;;;;;;;;4945896;29;20031;-67
2021/10/26 10:20:24;;;;;;;6.20;3.22;;;;;;;;;;4939856;28;20039;-64
2021/10/26 10:22:49;;;;;;;6.00;4.05;;;;;;;;;;4933857;28;20536;-64
2021/10/26 10:25:14;;;;;;;8.13;6.20;;;;;;;;;;4933780;28;20541;-66
2021/10/26 10:27:41;;;;;;;6.88;3.28;;;;;;;;;;4936045;28;20036;-66
2021/10/26 10:30:09;;;;;;;6.30;3.65;;;;;;;;;;4945092;28;20023;-67
2021/10/26 10:32:34;;;;;;;5.72;3.80;;;;;;;;;;4944337;28;20078;-65
2021/10/26 10:34:59;;;;;;;7.15;3.97;;;;;;;;;;4945160;28;20065;-67
2021/10/26 10:37:29;;;;;;;4.75;3.00;;;;;;;;;;4941220;28;20045;-66
2021/10/26 10:39:57;;;;;;;9.23;3.60;;;;;;;;;;4945664;29;20501;-64
2021/10/26 10:42:23;;;;;;;6.05;3.50;;;;;;;;;;4945016;28;20399;-67
2021/10/26 10:44:52;;;;;;;4.97;3.05;;;;;;;;;;4940717;28;20042;-66
2021/10/26 10:47:37;;;;;;;7.40;4.93;;;;;;;;;;4935288;28;20076;-65
2021/10/26 10:50:03;;;;;;;5.85;3.83;;;;;;;;;;4942792;28;20383;-64
2021/10/26 10:52:30;;;;;;;6.40;2.70;;;;;;;;;;4944700;28;20026;-67
2021/10/26 10:54:56;;;;;;;9.20;4.10;;;;;;;;;;4948063;28;20690;-67
2021/10/26 10:57:28;;;;;;;4.93;3.45;;;;;;;;;;4945454;28;20046;-65
2021/10/26 10:59:54;;;;;;;11.45;3.53;;;;;;;;;;4947755;28;20478;-64
2021/10/26 11:02:22;;;;;;;7.05;3.17;;;;;;;;;;4942871;28;20043;-65
2021/10/26 11:04:48;;;;;;;4.60;2.75;;;;;;;;;;4942218;29;20020;-65
2021/10/26 11:07:13;;;;;;;4.57;2.78;;;;;;;;;;4944900;28;20097;-64
2021/10/26 11:09:39;;;;;;;6.28;2.72;;;;;;;;;;4945721;28;20043;-64
2021/10/26 11:12:10;;;;;;;5.43;2.78;;;;;;;;;;4947268;28;20035;-64
2021/10/26 11:14:45;;;;;;;5.32;2.83;;;;;;;;;;4946220;29;20063;-64
2021/10/26 11:17:29;;;;;;;6.95;4.55;;;;;;;;;;4945068;28;20039;-65
2021/10/26 11:19:57;;;;;;;6.90;4.13;;;;;;;;;;4960267;28;20030;-65
2021/10/26 11:22:41;;;;;;;7.50;3.38;;;;;;;;;;4945326;28;20077;-65
2021/10/26 11:25:21;;;;;;;8.10;4.65;;;;;;;;;;4944404;28;20023;-64
2021/10/26 11:27:46;;;;;;;7.03;3.13;;;;;;;;;;4946655;28;20118;-65
2021/10/26 11:30:27;;;;;;;5.78;3.40;;;;;;;;;;4944374;28;20175;-65
2021/10/26 11:32:52;;;;;;;;;;;;;;;;;;4944333;28;20086;-65
2021/10/26 11:35:18;;;;;;;4.10;2.55;;;;;;;;;;4945079;28;19918;-65
2021/10/26 11:37:43;;;;;;;8.75;5.95;;;;;;;;;;4945609;28;20364;-66
2021/10/26 11:40:08;;;;;;;7.85;3.00;;;;;;;;;;4930432;28;20118;-65
2021/10/26 11:42:34;;;;;;;7.03;2.80;;;;;;;;;;4945262;28;20497;-65
2021/10/26 11:45:08;;;;;;;7.28;3.85;;;;;;;;;;4947676;28;20067;-65
2021/10/26 11:47:43;;;;;;;5.63;2.70;;;;;;;;;;4955948;28;20078;-64
2021/10/26 11:50:08;;;;;;;5.75;3.58;;;;;;;;;;4942780;28;20038;-64
2021/10/26 11:52:36;;;;;;;9.65;5.50;;;;;;;;;;4949593;28;20384;-65
2021/10/26 11:55:02;;;;;;;6.25;3.22;;;;;;;;;;4938015;28;20059;-65
2021/10/26 11:57:27;;;;;;;6.45;3.40;;;;;;;;;;4939713;29;20062;-65
2021/10/26 11:59:58;;;;;;;7.20;3.85;;;;;;;;;;4943828;29;20027;-65
2021/10/26 12:02:23;;;;;;;7.90;3.08;;;;;;;;;;4943462;28;20078;-65
2021/10/26 12:04:53;;;;;;;9.40;5.40;;;;;;;;;;4942569;29;20035;-65
2021/10/26 12:07:23;;;;;;;4.03;2.60;;;;;;;;;;4945271;28;20854;-65
2021/10/26 12:09:49;;;;;;;8.48;3.55;;;;;;;;;;4949382;28;20438;-65
2021/10/26 12:12:16;;;;;;;5.13;2.88;;;;;;;;;;4950209;28;20043;-65
2021/10/26 12:14:46;;;;;;;6.20;2.88;;;;;;;;;;4942449;28;20044;-65
2021/10/26 12:17:19;;;;;;;5.75;3.58;;;;;;;;;;4949279;28;20057;-65
2021/10/26 12:19:52;;;;;;;11.32;5.45;;;;;;;;;;4949827;28;20078;-65
2021/10/26 12:22:24;;;;;;;5.35;2.33;;;;;;;;;;4949326;28;20513;-65
2021/10/26 12:24:55;;;;;;;6.22;3.30;;;;;;;;;;4945035;29;20031;-67
2021/10/26 12:27:28;;;;;;;5.90;2.28;;;;;;;;;;4949379;28;20065;-65
2021/10/26 12:29:53;;;;;;;6.68;2.50;;;;;;;;;;4943398;28;20043;-66
2021/10/26 12:32:20;;;;;;;7.55;2.38;;;;;;;;;;4946271;28;20641;-66
2021/10/26 12:34:46;;;;;;;4.32;1.92;;;;;;;;;;4947460;28;20019;-66
2021/10/26 12:37:19;;;;;;;7.00;2.28;;;;;;;;;;4942613;28;20098;-66
2021/10/26 12:39:45;;;;;;;7.40;2.38;;;;;;;;;;4944478;28;20023;-66
2021/10/26 12:42:32;;;;;;;7.32;2.30;;;;;;;;;;4939926;28;20051;-66
2021/10/26 12:44:57;;;;;;;7.90;2.13;;;;;;;;;;4945077;28;20501;-65
2021/10/26 12:47:23;;;;;;;7.10;2.30;;;;;;;;;;4948653;28;20073;-65
2021/10/26 12:49:48;;;;;;;7.43;2.53;;;;;;;;;;4942162;28;20483;-65
2021/10/26 12:52:15;;;;;;;5.15;2.65;;;;;;;;;;4937270;28;20051;-66
2021/10/26 12:54:40;;;;;;;6.43;2.45;;;;;;;;;;4947717;28;20038;-67
2021/10/26 12:57:05;;;;;;;9.25;2.63;;;;;;;;;;4948776;28;20043;-65
2021/10/26 12:59:31;;;;;;;5.50;2.45;;;;;;;;;;4948867;28;20734;-65
2021/10/26 13:02:04;;;;;;;3.90;2.53;;;;;;;;;;4937836;28;20421;-65
2021/10/26 13:04:29;;;;;;;6.95;2.47;;;;;;;;;;4941443;28;20423;-65
2021/10/26 13:06:59;;;;;;;5.38;2.53;;;;;;;;;;4943706;28;20150;-65
2021/10/26 13:09:25;;;;;;;;;;;;;;;;;;4940762;28;20032;-65
2021/10/26 13:12:00;;;;;;;11.57;2.10;;;;;;;;;;4945544;28;19914;-65
2021/10/26 13:14:33;;;;;;;8.27;2.10;;;;;;;;;;4948105;29;20090;-64
2021/10/26 13:16:58;;;;;;;7.53;2.10;;;;;;;;;;4947242;28;20059;-65
2021/10/26 13:19:28;;;;;;;7.95;2.40;;;;;;;;;;4948119;28;20065;-64
2021/10/26 13:22:04;;;;;;;6.68;2.33;;;;;;;;;;4943244;28;20051;-64
2021/10/26 13:24:30;;;;;;;7.32;2.40;;;;;;;;;;4935844;29;20099;-66
2021/10/26 13:26:55;;;;;;;6.25;2.53;;;;;;;;;;4948533;28;20065;-66
2021/10/26 13:29:20;;;;;;;6.45;2.22;;;;;;;;;;4952501;28;20019;-66
2021/10/26 13:31:45;;;;;;;4.40;2.00;;;;;;;;;;4940894;28;20098;-66
2021/10/26 13:34:11;;;;;;;6.82;2.35;;;;;;;;;;4944347;28;20029;-66
2021/10/26 13:36:37;;;;;;;5.20;2.20;;;;;;;;;;4941029;28;20039;-65
2021/10/26 13:39:05;;;;;;;5.95;2.25;;;;;;;;;;4947937;28;20015;-65
2021/10/26 13:41:30;;;;;;;10.35;2.08;;;;;;;;;;4947065;28;20039;-65
2021/10/26 13:43:55;;;;;;;5.40;2.20;;;;;;;;;;4940806;28;20073;-64
2021/10/26 13:46:21;;;;;;;5.85;2.13;;;;;;;;;;4939923;28;20335;-64
2021/10/26 13:48:47;;;;;;;5.93;2.10;;;;;;;;;;4939690;28;20054;-64
2021/10/26 13:51:13;;;;;;;6.40;2.40;;;;;;;;;;4946865;28;20778;-65
2021/10/26 13:53:39;;;;;;;6.28;2.10;;;;;;;;;;4951276;28;20030;-67
2021/10/26 13:56:04;;;;;;;4.30;1.88;;;;;;;;;;4938259;28;20043;-65
2021/10/26 13:58:30;;;;;;;4.15;2.00;;;;;;;;;;4953276;28;20397;-65
2021/10/26 14:00:59;;;;;;;4.20;1.67;;;;;;;;;;4940294;28;20075;-65
2021/10/26 14:03:24;;;;;;;4.50;1.83;;;;;;;;;;4947088;28;20613;-66
2021/10/26 14:05:52;;;;;;;6.32;1.95;;;;;;;;;;4946996;28;20042;-65
2021/10/26 14:08:17;;;;;;;4.45;2.03;;;;;;;;;;4939093;28;20126;-65
2021/10/26 14:10:43;;;;;;;5.68;2.03;;;;;;;;;;4941053;28;20574;-65
2021/10/26 14:13:08;;;;;;;7.07;1.98;;;;;;;;;;4942014;28;20023;-65
2021/10/26 14:15:34;;;;;;;5.40;2.33;;;;;;;;;;4947034;28;20105;-65
2021/10/26 14:17:59;;;;;;;6.60;1.90;;;;;;;;;;4946941;28;20058;-65
2021/10/26 14:20:25;;;;;;;5.07;2.05;;;;;;;;;;4941041;28;20146;-65
2021/10/26 14:22:51;;;;;;;4.55;1.98;;;;;;;;;;4946454;28;20110;-66
2021/10/26 14:25:16;;;;;;;6.22;2.13;;;;;;;;;;4935730;28;20114;-65
2021/10/26 14:27:42;;;;;;;4.68;1.77;;;;;;;;;;4942488;28;20023;-66
2021/10/26 14:30:07;;;;;;;6.53;2.10;;;;;;;;;;4947277;28;20051;-65
2021/10/26 14:32:32;;;;;;;5.57;2.00;;;;;;;;;;4947034;28;20414;-65
2021/10/26 14:35:00;;;;;;;8.15;2.20;;;;;;;;;;4946709;28;20034;-65
2021/10/26 14:37:36;;;;;;;7.80;1.98;;;;;;;;;;4930128;28;20562;-65
2021/10/26 14:53:35;;;;;;;7.15;2.22;;;;;;;;;;4941972;29;20062;-66